sensor_id;sensor_type;location;lat;lon;timestamp;pressure;altitude;pressure_sealevel;temperature;humidity
33845;BME280;20145;43.118;25.694;2023-03-11T00:02:15;97578.47;;;15.50;75.33
33845;BME280;20145;43.118;25.694;2023-03-11T00:04:41;97581.47;;;15.44;75.39
33845;BME280;20145;43.118;25.694;2023-03-11T00:07:08;97586.47;;;15.47;74.99
33845;BME280;20145;43.118;25.694;2023-03-11T00:09:34;97595.56;;;15.39;76.56
33845;BME280;20145;43.118;25.694;2023-03-11T00:12:00;97590.63;;;15.35;75.51
33845;BME280;20145;43.118;25.694;2023-03-11T00:14:26;97574.13;;;15.36;75.82
33845;BME280;20145;43.118;25.694;2023-03-11T00:16:52;97573.28;;;15.50;74.69
33845;BME280;20145;43.118;25.694;2023-03-11T00:19:17;97581.09;;;15.50;75.25
33845;BME280;20145;43.118;25.694;2023-03-11T00:21:43;97567.34;;;15.48;74.51
33845;BME280;20145;43.118;25.694;2023-03-11T00:24:09;97574.47;;;15.58;75.01
33845;BME280;20145;43.118;25.694;2023-03-11T00:26:34;97577.06;;;15.58;75.15
33845;BME280;20145;43.118;25.694;2023-03-11T00:29:00;97576.06;;;15.61;75.03
33845;BME280;20145;43.118;25.694;2023-03-11T00:31:27;97570.66;;;15.64;74.41
33845;BME280;20145;43.118;25.694;2023-03-11T00:33:53;97568.06;;;15.64;74.36
33845;BME280;20145;43.118;25.694;2023-03-11T00:36:30;97560.91;;;15.68;74.09
33845;BME280;20145;43.118;25.694;2023-03-11T00:38:56;97560.34;;;15.62;75.44
33845;BME280;20145;43.118;25.694;2023-03-11T00:41:22;97558.59;;;15.63;74.18
33845;BME280;20145;43.118;25.694;2023-03-11T00:43:48;97560.34;;;15.62;75.39
33845;BME280;20145;43.118;25.694;2023-03-11T00:46:13;97536.06;;;15.49;75.18
33845;BME280;20145;43.118;25.694;2023-03-11T00:48:39;97548.38;;;15.60;75.53
33845;BME280;20145;43.118;25.694;2023-03-11T00:51:06;97553.69;;;15.58;74.66
33845;BME280;20145;43.118;25.694;2023-03-11T00:53:32;97550.34;;;15.56;75.25
33845;BME280;20145;43.118;25.694;2023-03-11T00:55:58;97540.03;;;15.55;75.24
33845;BME280;20145;43.118;25.694;2023-03-11T00:58:23;97540.88;;;15.55;76.33
33845;BME280;20145;43.118;25.694;2023-03-11T01:00:52;97537.53;;;15.53;76.55
33845;BME280;20145;43.118;25.694;2023-03-11T01:03:18;97517.75;;;15.51;75.35
33845;BME280;20145;43.118;25.694;2023-03-11T01:05:43;97517.94;;;15.48;75.62
33845;BME280;20145;43.118;25.694;2023-03-11T01:08:09;97518.50;;;15.53;75.90
33845;BME280;20145;43.118;25.694;2023-03-11T01:10:37;97515.06;;;15.52;75.87
33845;BME280;20145;43.118;25.694;2023-03-11T01:13:03;97517.88;;;15.49;76.88
33845;BME280;20145;43.118;25.694;2023-03-11T01:15:34;97518.97;;;15.45;75.81
33845;BME280;20145;43.118;25.694;2023-03-11T01:18:00;97515.63;;;15.43;76.49
33845;BME280;20145;43.118;25.694;2023-03-11T01:20:26;97501.25;;;15.37;77.58
33845;BME280;20145;43.118;25.694;2023-03-11T01:22:52;97503.22;;;15.34;77.70
33845;BME280;20145;43.118;25.694;2023-03-11T01:25:19;97493.47;;;15.37;77.08
33845;BME280;20145;43.118;25.694;2023-03-11T01:27:45;97502.94;;;15.38;76.90
33845;BME280;20145;43.118;25.694;2023-03-11T01:30:14;97494.13;;;15.41;76.75
33845;BME280;20145;43.118;25.694;2023-03-11T01:32:40;97487.25;;;15.40;76.85
33845;BME280;20145;43.118;25.694;2023-03-11T01:35:06;97479.56;;;15.38;77.07
33845;BME280;20145;43.118;25.694;2023-03-11T01:37:32;97471.22;;;15.33;76.71
33845;BME280;20145;43.118;25.694;2023-03-11T01:39:57;97467.13;;;15.29;77.91
33845;BME280;20145;43.118;25.694;2023-03-11T01:42:23;97461.41;;;15.24;77.01
33845;BME280;20145;43.118;25.694;2023-03-11T01:44:48;97474.66;;;15.20;78.62
33845;BME280;20145;43.118;25.694;2023-03-11T01:47:33;97459.66;;;15.10;79.07
33845;BME280;20145;43.118;25.694;2023-03-11T01:49:59;97460.75;;;15.06;78.91
33845;BME280;20145;43.118;25.694;2023-03-11T01:52:25;97455.31;;;14.97;78.29
33845;BME280;20145;43.118;25.694;2023-03-11T01:54:51;97452.88;;;14.93;77.67
33845;BME280;20145;43.118;25.694;2023-03-11T01:57:17;97441.84;;;14.90;78.52
33845;BME280;20145;43.118;25.694;2023-03-11T01:59:47;97436.84;;;14.87;78.23
33845;BME280;20145;43.118;25.694;2023-03-11T02:02:27;97433.78;;;14.94;79.39
33845;BME280;20145;43.118;25.694;2023-03-11T02:04:54;97427.03;;;14.92;78.57
33845;BME280;20145;43.118;25.694;2023-03-11T02:07:20;97426.38;;;14.88;78.98
33845;BME280;20145;43.118;25.694;2023-03-11T02:09:45;97425.25;;;14.92;78.91
33845;BME280;20145;43.118;25.694;2023-03-11T02:12:12;97415.06;;;14.89;79.31
33845;BME280;20145;43.118;25.694;2023-03-11T02:14:45;97427.41;;;14.86;79.11
33845;BME280;20145;43.118;25.694;2023-03-11T02:17:12;97420.63;;;14.83;79.59
33845;BME280;20145;43.118;25.694;2023-03-11T02:22:32;97422.41;;;14.83;79.99
33845;BME280;20145;43.118;25.694;2023-03-11T02:27:27;97406.63;;;14.86;79.30
33845;BME280;20145;43.118;25.694;2023-03-11T02:29:53;97408.69;;;14.81;80.83
33845;BME280;20145;43.118;25.694;2023-03-11T02:32:21;97386.78;;;14.70;80.19
33845;BME280;20145;43.118;25.694;2023-03-11T02:34:47;97396.59;;;14.80;79.42
33845;BME280;20145;43.118;25.694;2023-03-11T02:37:15;97405.34;;;14.79;80.39
33845;BME280;20145;43.118;25.694;2023-03-11T02:39:43;97385.41;;;14.79;80.46
33845;BME280;20145;43.118;25.694;2023-03-11T02:42:13;97389.75;;;14.79;79.29
33845;BME280;20145;43.118;25.694;2023-03-11T02:44:41;97399.13;;;14.81;80.33
33845;BME280;20145;43.118;25.694;2023-03-11T02:47:08;97392.91;;;14.84;80.15
33845;BME280;20145;43.118;25.694;2023-03-11T02:49:35;97395.31;;;14.87;80.18
33845;BME280;20145;43.118;25.694;2023-03-11T02:52:02;97394.38;;;14.88;79.13
33845;BME280;20145;43.118;25.694;2023-03-11T02:54:27;97390.31;;;14.84;80.24
33845;BME280;20145;43.118;25.694;2023-03-11T02:56:53;97384.38;;;14.82;80.34
33845;BME280;20145;43.118;25.694;2023-03-11T02:59:18;97391.88;;;14.86;79.03
33845;BME280;20145;43.118;25.694;2023-03-11T03:01:44;97390.19;;;14.85;79.26
33845;BME280;20145;43.118;25.694;2023-03-11T03:04:09;97387.91;;;14.81;79.88
33845;BME280;20145;43.118;25.694;2023-03-11T03:06:35;97377.59;;;14.79;80.69
33845;BME280;20145;43.118;25.694;2023-03-11T03:09:01;97376.69;;;14.80;79.41
33845;BME280;20145;43.118;25.694;2023-03-11T03:11:26;97362.53;;;14.71;79.23
33845;BME280;20145;43.118;25.694;2023-03-11T03:13:52;97369.19;;;14.76;79.14
33845;BME280;20145;43.118;25.694;2023-03-11T03:16:17;97372.59;;;14.76;79.04
33845;BME280;20145;43.118;25.694;2023-03-11T03:18:43;97375.41;;;14.73;80.88
33845;BME280;20145;43.118;25.694;2023-03-11T03:21:08;97367.81;;;14.70;80.75
33845;BME280;20145;43.118;25.694;2023-03-11T03:23:34;97371.22;;;14.70;80.52
33845;BME280;20145;43.118;25.694;2023-03-11T03:26:03;97376.78;;;14.64;80.67
33845;BME280;20145;43.118;25.694;2023-03-11T03:28:29;97371.50;;;14.66;80.51
33845;BME280;20145;43.118;25.694;2023-03-11T03:30:54;97372.44;;;14.65;79.23
33845;BME280;20145;43.118;25.694;2023-03-11T03:33:20;97367.25;;;14.65;79.91
33845;BME280;20145;43.118;25.694;2023-03-11T03:35:46;97367.06;;;14.68;80.62
33845;BME280;20145;43.118;25.694;2023-03-11T03:38:12;97360.56;;;14.75;79.16
33845;BME280;20145;43.118;25.694;2023-03-11T03:40:38;97350.19;;;14.75;79.34
33845;BME280;20145;43.118;25.694;2023-03-11T03:43:04;97358.78;;;14.76;78.37
33845;BME280;20145;43.118;25.694;2023-03-11T03:45:30;97347.00;;;14.84;78.46
33845;BME280;20145;43.118;25.694;2023-03-11T03:47:56;97337.63;;;14.82;78.99
33845;BME280;20145;43.118;25.694;2023-03-11T03:50:22;97344.22;;;14.87;79.05
33845;BME280;20145;43.118;25.694;2023-03-11T03:52:47;97354.50;;;14.89;77.56
33845;BME280;20145;43.118;25.694;2023-03-11T03:55:13;97348.50;;;14.88;77.98
33845;BME280;20145;43.118;25.694;2023-03-11T03:57:39;97350.91;;;14.91;78.17
33845;BME280;20145;43.118;25.694;2023-03-11T04:00:05;97346.72;;;14.89;77.80
33845;BME280;20145;43.118;25.694;2023-03-11T04:02:33;97354.31;;;14.92;78.79
33845;BME280;20145;43.118;25.694;2023-03-11T04:04:59;97359.94;;;14.99;78.37
33845;BME280;20145;43.118;25.694;2023-03-11T04:07:25;97364.34;;;14.84;78.80
33845;BME280;20145;43.118;25.694;2023-03-11T04:09:50;97379.19;;;14.82;78.22
33845;BME280;20145;43.118;25.694;2023-03-11T04:12:16;97382.91;;;14.78;78.58
33845;BME280;20145;43.118;25.694;2023-03-11T04:14:42;97388.28;;;14.75;78.66
33845;BME280;20145;43.118;25.694;2023-03-11T04:17:12;97387.94;;;14.66;79.70
33845;BME280;20145;43.118;25.694;2023-03-11T04:19:38;97382.00;;;14.64;78.30
33845;BME280;20145;43.118;25.694;2023-03-11T04:22:04;97391.06;;;14.57;79.54
33845;BME280;20145;43.118;25.694;2023-03-11T04:24:29;97394.59;;;14.56;79.74
33845;BME280;20145;43.118;25.694;2023-03-11T04:26:55;97389.47;;;14.40;79.35
33845;BME280;20145;43.118;25.694;2023-03-11T04:29:20;97396.84;;;14.18;81.85
33845;BME280;20145;43.118;25.694;2023-03-11T04:31:46;97394.25;;;14.18;81.80
33845;BME280;20145;43.118;25.694;2023-03-11T04:34:12;97395.91;;;14.04;81.68
33845;BME280;20145;43.118;25.694;2023-03-11T04:36:38;97400.19;;;14.05;82.40
33845;BME280;20145;43.118;25.694;2023-03-11T04:39:03;97410.25;;;13.96;80.38
33845;BME280;20145;43.118;25.694;2023-03-11T04:41:29;97410.44;;;13.93;79.82
33845;BME280;20145;43.118;25.694;2023-03-11T04:43:54;97425.59;;;13.84;80.09
33845;BME280;20145;43.118;25.694;2023-03-11T04:46:20;97420.19;;;13.73;80.19
33845;BME280;20145;43.118;25.694;2023-03-11T04:48:45;97424.19;;;13.79;80.00
33845;BME280;20145;43.118;25.694;2023-03-11T04:51:11;97423.72;;;13.72;80.23
33845;BME280;20145;43.118;25.694;2023-03-11T04:53:36;97421.28;;;13.69;82.25
33845;BME280;20145;43.118;25.694;2023-03-11T04:56:02;97426.63;;;13.66;81.30
33845;BME280;20145;43.118;25.694;2023-03-11T04:58:27;97434.16;;;13.71;81.37
33845;BME280;20145;43.118;25.694;2023-03-11T05:00:53;97423.88;;;13.69;81.28
33845;BME280;20145;43.118;25.694;2023-03-11T05:03:20;97437.34;;;13.60;81.95
33845;BME280;20145;43.118;25.694;2023-03-11T05:05:46;97430.75;;;13.54;83.83
33845;BME280;20145;43.118;25.694;2023-03-11T05:08:11;97441.53;;;13.63;82.79
33845;BME280;20145;43.118;25.694;2023-03-11T05:10:39;97434.91;;;13.73;83.56
33845;BME280;20145;43.118;25.694;2023-03-11T05:13:06;97434.06;;;13.72;82.98
33845;BME280;20145;43.118;25.694;2023-03-11T05:15:31;97436.31;;;13.78;83.97
33845;BME280;20145;43.118;25.694;2023-03-11T05:17:57;97454.72;;;13.74;82.87
33845;BME280;20145;43.118;25.694;2023-03-11T05:20:23;97460.41;;;13.80;83.16
33845;BME280;20145;43.118;25.694;2023-03-11T05:22:48;97462.31;;;13.77;84.75
33845;BME280;20145;43.118;25.694;2023-03-11T05:25:14;97463.84;;;13.65;84.36
33845;BME280;20145;43.118;25.694;2023-03-11T05:27:40;97474.78;;;13.70;84.50
33845;BME280;20145;43.118;25.694;2023-03-11T05:30:06;97484.81;;;13.60;87.04
33845;BME280;20145;43.118;25.694;2023-03-11T05:32:32;97481.31;;;13.46;87.05
33845;BME280;20145;43.118;25.694;2023-03-11T05:34:57;97490.69;;;13.48;86.71
33845;BME280;20145;43.118;25.694;2023-03-11T05:37:23;97491.16;;;13.55;86.56
33845;BME280;20145;43.118;25.694;2023-03-11T05:39:50;97483.59;;;13.36;89.85
33845;BME280;20145;43.118;25.694;2023-03-11T05:42:16;97496.03;;;13.29;90.41
33845;BME280;20145;43.118;25.694;2023-03-11T05:44:43;97500.44;;;13.27;93.37
33845;BME280;20145;43.118;25.694;2023-03-11T05:47:09;97503.59;;;13.16;94.20
33845;BME280;20145;43.118;25.694;2023-03-11T05:49:35;97491.94;;;12.92;96.68
33845;BME280;20145;43.118;25.694;2023-03-11T05:52:00;97515.31;;;12.90;98.34
33845;BME280;20145;43.118;25.694;2023-03-11T05:54:26;97517.28;;;12.85;99.37
33845;BME280;20145;43.118;25.694;2023-03-11T05:56:52;97521.75;;;12.99;100.00
33845;BME280;20145;43.118;25.694;2023-03-11T05:59:17;97510.41;;;13.02;100.00
33845;BME280;20145;43.118;25.694;2023-03-11T06:01:43;97513.78;;;13.20;100.00
33845;BME280;20145;43.118;25.694;2023-03-11T06:04:09;97502.97;;;13.29;100.00
33845;BME280;20145;43.118;25.694;2023-03-11T06:06:35;97505.91;;;13.21;99.41
33845;BME280;20145;43.118;25.694;2023-03-11T06:09:00;97503.78;;;13.29;98.72
33845;BME280;20145;43.118;25.694;2023-03-11T06:11:28;97499.75;;;13.24;97.67
33845;BME280;20145;43.118;25.694;2023-03-11T06:13:56;97501.81;;;13.01;98.41
33845;BME280;20145;43.118;25.694;2023-03-11T06:16:23;97500.44;;;12.94;99.44
33845;BME280;20145;43.118;25.694;2023-03-11T06:18:50;97504.72;;;12.95;99.63
33845;BME280;20145;43.118;25.694;2023-03-11T06:21:17;97493.59;;;12.93;100.00
33845;BME280;20145;43.118;25.694;2023-03-11T06:23:43;97476.41;;;12.92;99.53
33845;BME280;20145;43.118;25.694;2023-03-11T06:26:11;97499.97;;;13.03;100.00
33845;BME280;20145;43.118;25.694;2023-03-11T06:28:38;97507.22;;;12.97;100.00
33845;BME280;20145;43.118;25.694;2023-03-11T06:31:13;97519.88;;;13.03;99.66
33845;BME280;20145;43.118;25.694;2023-03-11T06:33:39;97524.63;;;13.10;100.00
33845;BME280;20145;43.118;25.694;2023-03-11T06:36:05;97536.00;;;13.24;99.18
33845;BME280;20145;43.118;25.694;2023-03-11T06:38:32;97538.56;;;13.41;99.66
33845;BME280;20145;43.118;25.694;2023-03-11T06:41:00;97541.91;;;13.59;99.24
33845;BME280;20145;43.118;25.694;2023-03-11T06:43:28;97543.69;;;13.58;98.45
33845;BME280;20145;43.118;25.694;2023-03-11T06:45:54;97555.19;;;13.69;99.50
33845;BME280;20145;43.118;25.694;2023-03-11T06:48:19;97555.38;;;13.50;98.69
33845;BME280;20145;43.118;25.694;2023-03-11T06:50:55;97556.34;;;13.31;100.00
33845;BME280;20145;43.118;25.694;2023-03-11T06:53:21;97566.38;;;13.37;100.00
33845;BME280;20145;43.118;25.694;2023-03-11T06:56:01;97555.94;;;13.39;100.00
33845;BME280;20145;43.118;25.694;2023-03-11T06:58:28;97564.31;;;13.44;99.67
33845;BME280;20145;43.118;25.694;2023-03-11T07:00:59;97569.09;;;13.68;100.00
33845;BME280;20145;43.118;25.694;2023-03-11T07:03:24;97561.13;;;13.87;100.00
33845;BME280;20145;43.118;25.694;2023-03-11T07:05:50;97556.66;;;14.20;99.41
33845;BME280;20145;43.118;25.694;2023-03-11T07:08:16;97552.16;;;14.54;97.49
33845;BME280;20145;43.118;25.694;2023-03-11T07:10:42;97527.16;;;14.67;96.49
33845;BME280;20145;43.118;25.694;2023-03-11T07:13:07;97549.44;;;14.71;93.68
33845;BME280;20145;43.118;25.694;2023-03-11T07:15:33;97551.06;;;14.58;92.47
33845;BME280;20145;43.118;25.694;2023-03-11T07:17:59;97569.50;;;14.38;92.45
33845;BME280;20145;43.118;25.694;2023-03-11T07:20:25;97559.22;;;14.36;92.09
33845;BME280;20145;43.118;25.694;2023-03-11T07:22:51;97553.66;;;14.42;93.49
33845;BME280;20145;43.118;25.694;2023-03-11T07:25:16;97555.25;;;14.61;94.11
33845;BME280;20145;43.118;25.694;2023-03-11T07:27:42;97559.63;;;14.75;91.45
33845;BME280;20145;43.118;25.694;2023-03-11T07:30:08;97560.47;;;14.29;90.39
33845;BME280;20145;43.118;25.694;2023-03-11T07:32:34;97557.03;;;14.44;92.00
33845;BME280;20145;43.118;25.694;2023-03-11T07:34:59;97551.13;;;14.26;93.63
33845;BME280;20145;43.118;25.694;2023-03-11T07:37:25;97554.00;;;14.06;92.42
33845;BME280;20145;43.118;25.694;2023-03-11T07:39:51;97524.75;;;13.88;92.33
33845;BME280;20145;43.118;25.694;2023-03-11T07:42:16;97535.03;;;14.05;93.40
33845;BME280;20145;43.118;25.694;2023-03-11T07:44:42;97539.41;;;13.89;91.57
33845;BME280;20145;43.118;25.694;2023-03-11T07:47:08;97542.56;;;13.94;91.55
33845;BME280;20145;43.118;25.694;2023-03-11T07:49:34;97532.94;;;13.96;90.89
33845;BME280;20145;43.118;25.694;2023-03-11T07:52:01;97535.50;;;14.12;91.43
33845;BME280;20145;43.118;25.694;2023-03-11T07:54:26;97525.91;;;13.98;92.07
33845;BME280;20145;43.118;25.694;2023-03-11T07:56:52;97510.63;;;14.24;90.99
33845;BME280;20145;43.118;25.694;2023-03-11T07:59:21;97509.16;;;14.34;88.93
33845;BME280;20145;43.118;25.694;2023-03-11T08:01:47;97502.66;;;14.27;88.89
33845;BME280;20145;43.118;25.694;2023-03-11T08:04:13;97502.59;;;14.59;88.75
33845;BME280;20145;43.118;25.694;2023-03-11T08:06:42;97502.09;;;14.52;87.69
33845;BME280;20145;43.118;25.694;2023-03-11T08:09:09;97502.72;;;14.86;88.09
33845;BME280;20145;43.118;25.694;2023-03-11T08:11:35;97499.72;;;15.06;84.57
33845;BME280;20145;43.118;25.694;2023-03-11T08:14:01;97504.97;;;15.48;84.25
33845;BME280;20145;43.118;25.694;2023-03-11T08:16:27;97500.31;;;15.53;83.31
33845;BME280;20145;43.118;25.694;2023-03-11T08:18:54;97493.25;;;16.09;82.72
33845;BME280;20145;43.118;25.694;2023-03-11T08:21:22;97506.63;;;16.43;80.06
33845;BME280;20145;43.118;25.694;2023-03-11T08:23:49;97504.56;;;16.35;78.39
33845;BME280;20145;43.118;25.694;2023-03-11T08:26:17;97506.16;;;16.63;77.46
33845;BME280;20145;43.118;25.694;2023-03-11T08:28:43;97504.25;;;16.40;76.02
33845;BME280;20145;43.118;25.694;2023-03-11T08:31:18;97508.28;;;16.31;77.95
33845;BME280;20145;43.118;25.694;2023-03-11T08:33:46;97504.34;;;15.86;77.09
33845;BME280;20145;43.118;25.694;2023-03-11T08:36:14;97495.19;;;15.51;74.58
33845;BME280;20145;43.118;25.694;2023-03-11T08:38:41;97499.13;;;15.44;78.90
33845;BME280;20145;43.118;25.694;2023-03-11T08:41:06;97503.81;;;15.52;78.56
33845;BME280;20145;43.118;25.694;2023-03-11T08:43:32;97494.06;;;15.70;76.28
33845;BME280;20145;43.118;25.694;2023-03-11T08:46:03;97500.56;;;15.62;74.89
33845;BME280;20145;43.118;25.694;2023-03-11T08:48:31;97506.25;;;15.40;74.42
33845;BME280;20145;43.118;25.694;2023-03-11T08:50:57;97498.78;;;15.36;74.27
33845;BME280;20145;43.118;25.694;2023-03-11T08:53:23;97484.63;;;15.40;73.49
33845;BME280;20145;43.118;25.694;2023-03-11T08:55:50;97488.75;;;15.30;73.32
33845;BME280;20145;43.118;25.694;2023-03-11T08:58:16;97490.69;;;15.26;72.58
33845;BME280;20145;43.118;25.694;2023-03-11T09:00:42;97482.06;;;15.26;72.64
33845;BME280;20145;43.118;25.694;2023-03-11T09:03:07;97477.25;;;15.20;71.82
33845;BME280;20145;43.118;25.694;2023-03-11T09:05:33;97472.00;;;15.48;72.79
33845;BME280;20145;43.118;25.694;2023-03-11T09:07:58;97466.16;;;15.45;72.02
33845;BME280;20145;43.118;25.694;2023-03-11T09:10:24;97477.25;;;15.20;73.12
33845;BME280;20145;43.118;25.694;2023-03-11T09:12:49;97463.31;;;15.35;74.51
33845;BME280;20145;43.118;25.694;2023-03-11T09:15:15;97462.53;;;15.47;72.52
33845;BME280;20145;43.118;25.694;2023-03-11T09:17:41;97457.28;;;15.61;73.52
33845;BME280;20145;43.118;25.694;2023-03-11T09:20:07;97458.22;;;15.75;73.73
33845;BME280;20145;43.118;25.694;2023-03-11T09:22:33;97454.28;;;15.68;73.79
33845;BME280;20145;43.118;25.694;2023-03-11T09:24:58;97459.13;;;15.74;73.03
33845;BME280;20145;43.118;25.694;2023-03-11T09:27:24;97445.25;;;15.60;72.21
33845;BME280;20145;43.118;25.694;2023-03-11T09:29:50;97448.03;;;15.84;72.58
33845;BME280;20145;43.118;25.694;2023-03-11T09:32:15;97438.91;;;16.04;71.95
33845;BME280;20145;43.118;25.694;2023-03-11T09:34:41;97454.03;;;16.12;72.36
33845;BME280;20145;43.118;25.694;2023-03-11T09:37:07;97450.72;;;16.23;69.17
33845;BME280;20145;43.118;25.694;2023-03-11T09:39:32;97450.31;;;16.29;69.08
33845;BME280;20145;43.118;25.694;2023-03-11T09:42:26;97441.56;;;16.56;67.14
33845;BME280;20145;43.118;25.694;2023-03-11T09:45:01;97448.22;;;16.60;67.90
33845;BME280;20145;43.118;25.694;2023-03-11T09:47:37;97440.03;;;16.79;65.55
33845;BME280;20145;43.118;25.694;2023-03-11T09:53:10;97430.44;;;16.92;64.18
33845;BME280;20145;43.118;25.694;2023-03-11T09:55:44;97431.91;;;16.83;64.64
33845;BME280;20145;43.118;25.694;2023-03-11T10:00:51;97422.75;;;16.52;65.15
33845;BME280;20145;43.118;25.694;2023-03-11T10:03:32;97422.31;;;16.45;64.37
33845;BME280;20145;43.118;25.694;2023-03-11T10:14:06;97414.44;;;17.09;62.68
33845;BME280;20145;43.118;25.694;2023-03-11T10:26:58;97407.53;;;17.93;59.26
33845;BME280;20145;43.118;25.694;2023-03-11T10:29:33;97394.13;;;17.63;61.12
33845;BME280;20145;43.118;25.694;2023-03-11T10:34:58;97394.28;;;17.48;59.11
33845;BME280;20145;43.118;25.694;2023-03-11T10:37:38;97390.59;;;17.75;57.50
33845;BME280;20145;43.118;25.694;2023-03-11T10:40:18;97392.16;;;17.53;57.49
33845;BME280;20145;43.118;25.694;2023-03-11T10:42:45;97387.94;;;17.64;57.92
33845;BME280;20145;43.118;25.694;2023-03-11T10:45:12;97378.28;;;17.77;56.04
33845;BME280;20145;43.118;25.694;2023-03-11T10:47:38;97375.50;;;17.91;55.73
33845;BME280;20145;43.118;25.694;2023-03-11T10:50:04;97372.44;;;17.73;56.43
33845;BME280;20145;43.118;25.694;2023-03-11T10:52:30;97376.41;;;17.55;57.12
33845;BME280;20145;43.118;25.694;2023-03-11T10:55:00;97372.78;;;17.69;57.55
33845;BME280;20145;43.118;25.694;2023-03-11T10:57:35;97368.59;;;17.90;56.76
33845;BME280;20145;43.118;25.694;2023-03-11T11:00:06;97366.16;;;18.00;55.98
33845;BME280;20145;43.118;25.694;2023-03-11T11:02:53;97361.09;;;17.50;56.43
33845;BME280;20145;43.118;25.694;2023-03-11T11:10:31;97355.50;;;17.20;57.63
33845;BME280;20145;43.118;25.694;2023-03-11T11:13:01;97365.22;;;17.42;56.96
33845;BME280;20145;43.118;25.694;2023-03-11T11:15:36;97360.59;;;17.45;57.51
33845;BME280;20145;43.118;25.694;2023-03-11T11:18:17;97361.00;;;17.52;57.21
33845;BME280;20145;43.118;25.694;2023-03-11T11:23:31;97354.88;;;17.88;55.34
33845;BME280;20145;43.118;25.694;2023-03-11T11:26:00;97353.81;;;18.02;54.51
33845;BME280;20145;43.118;25.694;2023-03-11T11:28:26;97345.72;;;17.82;51.83
33845;BME280;20145;43.118;25.694;2023-03-11T11:33:27;97353.69;;;18.03;51.88
33845;BME280;20145;43.118;25.694;2023-03-11T11:35:56;97357.03;;;18.17;53.67
33845;BME280;20145;43.118;25.694;2023-03-11T11:38:24;97358.94;;;18.26;53.10
33845;BME280;20145;43.118;25.694;2023-03-11T11:40:54;97352.78;;;18.04;53.81
33845;BME280;20145;43.118;25.694;2023-03-11T11:43:48;97359.03;;;18.02;53.39
33845;BME280;20145;43.118;25.694;2023-03-11T11:52:11;97346.06;;;17.54;53.44
33845;BME280;20145;43.118;25.694;2023-03-11T11:57:13;97353.50;;;17.71;53.27
33845;BME280;20145;43.118;25.694;2023-03-11T11:59:39;97344.53;;;17.87;54.16
33845;BME280;20145;43.118;25.694;2023-03-11T12:02:22;97354.13;;;17.86;52.82
33845;BME280;20145;43.118;25.694;2023-03-11T12:05:10;97353.13;;;17.76;54.25
33845;BME280;20145;43.118;25.694;2023-03-11T12:18:22;97356.38;;;17.79;54.53
33845;BME280;20145;43.118;25.694;2023-03-11T12:20:53;97363.97;;;17.58;53.20
33845;BME280;20145;43.118;25.694;2023-03-11T12:31:13;97368.63;;;17.66;53.75
33845;BME280;20145;43.118;25.694;2023-03-11T12:33:49;97373.47;;;17.83;54.21
33845;BME280;20145;43.118;25.694;2023-03-11T12:38:49;97375.28;;;18.05;53.57
33845;BME280;20145;43.118;25.694;2023-03-11T12:41:29;97387.91;;;17.76;53.14
33845;BME280;20145;43.118;25.694;2023-03-11T12:44:00;97381.28;;;17.83;52.48
33845;BME280;20145;43.118;25.694;2023-03-11T12:49:30;97377.03;;;17.82;52.37
33845;BME280;20145;43.118;25.694;2023-03-11T12:54:47;97387.03;;;18.00;52.48
33845;BME280;20145;43.118;25.694;2023-03-11T13:00:19;97387.81;;;17.65;51.51
33845;BME280;20145;43.118;25.694;2023-03-11T13:08:20;97392.13;;;17.42;54.32
33845;BME280;20145;43.118;25.694;2023-03-11T13:10:51;97380.41;;;17.48;52.85
33845;BME280;20145;43.118;25.694;2023-03-11T13:18:45;97393.22;;;17.51;52.41
33845;BME280;20145;43.118;25.694;2023-03-11T13:27:02;97400.44;;;17.47;52.40
33845;BME280;20145;43.118;25.694;2023-03-11T13:35:27;97394.94;;;17.87;51.81
33845;BME280;20145;43.118;25.694;2023-03-11T13:40:44;97396.25;;;17.93;52.86
33845;BME280;20145;43.118;25.694;2023-03-11T13:43:16;97389.09;;;18.19;53.05
33845;BME280;20145;43.118;25.694;2023-03-11T13:46:05;97385.28;;;18.23;51.79
33845;BME280;20145;43.118;25.694;2023-03-11T13:48:43;97388.97;;;18.20;52.36
33845;BME280;20145;43.118;25.694;2023-03-11T13:51:16;97399.16;;;18.12;52.56
33845;BME280;20145;43.118;25.694;2023-03-11T13:53:58;97403.19;;;18.05;53.21
33845;BME280;20145;43.118;25.694;2023-03-11T13:56:27;97407.00;;;18.23;53.13
33845;BME280;20145;43.118;25.694;2023-03-11T13:58:53;97406.56;;;17.83;54.64
33845;BME280;20145;43.118;25.694;2023-03-11T14:01:19;97398.13;;;17.79;54.45
33845;BME280;20145;43.118;25.694;2023-03-11T14:03:46;97407.28;;;17.85;55.37
33845;BME280;20145;43.118;25.694;2023-03-11T14:06:14;97410.75;;;17.97;56.07
33845;BME280;20145;43.118;25.694;2023-03-11T14:08:40;97411.22;;;17.91;55.63
33845;BME280;20145;43.118;25.694;2023-03-11T14:13:43;97401.22;;;17.60;56.43
33845;BME280;20145;43.118;25.694;2023-03-11T14:18:45;97400.88;;;17.65;56.73
33845;BME280;20145;43.118;25.694;2023-03-11T14:21:17;97437.16;;;17.44;58.07
33845;BME280;20145;43.118;25.694;2023-03-11T14:23:46;97418.25;;;17.29;58.61
33845;BME280;20145;43.118;25.694;2023-03-11T14:26:33;97407.94;;;17.15;59.52
33845;BME280;20145;43.118;25.694;2023-03-11T14:29:14;97426.13;;;17.04;60.51
33845;BME280;20145;43.118;25.694;2023-03-11T14:31:41;97426.75;;;17.07;60.08
33845;BME280;20145;43.118;25.694;2023-03-11T14:34:19;97426.94;;;17.17;60.15
33845;BME280;20145;43.118;25.694;2023-03-11T14:36:46;97427.66;;;17.19;59.73
33845;BME280;20145;43.118;25.694;2023-03-11T14:44:34;97446.19;;;16.90;59.14
33845;BME280;20145;43.118;25.694;2023-03-11T14:49:49;97447.72;;;16.93;60.59
33845;BME280;20145;43.118;25.694;2023-03-11T14:52:20;97459.38;;;16.87;59.47
33845;BME280;20145;43.118;25.694;2023-03-11T14:54:50;97460.03;;;16.78;59.62